createdAt,value
2022-08-22T00:01:07.793Z,24.07
2022-08-22T00:02:57.905Z,24.21
2022-08-22T00:02:59.903Z,24.97
2022-08-22T00:03:46.423Z,24.22
2022-08-22T00:06:40.553Z,24.06
2022-08-22T00:09:24.798Z,24.16
2022-08-22T00:12:04.172Z,24.10
2022-08-22T00:14:42.443Z,24.15
2022-08-22T00:17:31.285Z,24.11
2022-08-22T00:20:21.714Z,24.11
2022-08-22T00:23:12.144Z,24.06
2022-08-22T00:25:50.799Z,24.06
2022-08-22T00:28:38.438Z,24.07
2022-08-22T00:31:27.009Z,23.98
2022-08-22T00:34:15.660Z,23.93
2022-08-22T00:36:52.041Z,23.89
2022-08-22T00:39:45.126Z,23.82
2022-08-22T00:42:31.586Z,23.84
2022-08-22T00:45:25.079Z,23.81
2022-08-22T00:48:03.666Z,23.66
2022-08-22T00:50:46.139Z,23.72
2022-08-22T00:54:06.737Z,23.70
2022-08-22T00:56:59.439Z,23.69
2022-08-22T00:59:37.029Z,23.64
2022-08-22T01:02:43.651Z,23.57
2022-08-22T01:05:30.464Z,23.51
2022-08-22T01:08:12.340Z,23.55
2022-08-22T01:10:56.673Z,23.41
2022-08-22T01:13:54.337Z,23.37
2022-08-22T01:16:48.292Z,23.35
2022-08-22T01:19:39.721Z,23.30
2022-08-22T01:22:25.428Z,23.25
2022-08-22T01:25:22.640Z,23.21
2022-08-22T01:28:04.641Z,23.17
2022-08-22T01:30:44.977Z,23.17
2022-08-22T01:33:52.170Z,23.01
2022-08-22T01:36:30.956Z,23.08
2022-08-22T01:39:21.802Z,23.12
2022-08-22T01:42:22.333Z,23.12
2022-08-22T01:44:52.111Z,23.04
2022-08-22T01:47:37.361Z,23.05
2022-08-22T01:50:33.928Z,22.99
2022-08-22T01:53:16.400Z,22.84
2022-08-22T01:56:09.845Z,22.90
2022-08-22T01:58:45.236Z,22.78
2022-08-22T02:01:18.383Z,22.81
2022-08-22T02:03:51.452Z,22.77
2022-08-22T02:06:32.546Z,22.63
2022-08-22T02:09:10.822Z,22.67
2022-08-22T02:11:52.924Z,22.69
2022-08-22T02:14:34.172Z,22.71
2022-08-22T02:17:14.112Z,22.69
2022-08-22T02:19:59.226Z,22.81
2022-08-22T02:22:50.493Z,22.76
2022-08-22T02:25:33.096Z,22.77
2022-08-22T02:28:10.504Z,22.67
2022-08-22T02:31:01.008Z,22.74
2022-08-22T02:33:45.899Z,22.78
2022-08-22T02:36:45.573Z,22.90
2022-08-22T02:39:42.513Z,22.89
2022-08-22T02:42:45.820Z,22.81
2022-08-22T02:45:39.076Z,22.89
2022-08-22T02:48:32.662Z,22.93
2022-08-22T02:51:17.131Z,22.94
2022-08-22T02:54:21.419Z,23.00
2022-08-22T02:57:19.007Z,22.95
2022-08-22T03:00:25.024Z,23.01
2022-08-22T03:03:01.681Z,23.00
2022-08-22T03:05:40.642Z,23.00
2022-08-22T03:08:29.230Z,22.88
2022-08-22T03:10:56.614Z,23.00
2022-08-22T03:13:37.650Z,23.00
2022-08-22T03:16:13.224Z,23.02
2022-08-22T03:19:13.227Z,22.98
2022-08-22T03:21:57.792Z,23.00
2022-08-22T03:24:33.417Z,23.03
2022-08-22T03:27:03.971Z,23.10
2022-08-22T03:29:44.170Z,23.22
2022-08-22T03:32:15.059Z,23.31
2022-08-22T03:35:08.146Z,23.26
2022-08-22T03:37:37.933Z,23.26
2022-08-22T03:40:20.011Z,23.28
2022-08-22T03:43:32.909Z,23.23
2022-08-22T03:46:23.599Z,23.23
2022-08-22T03:49:20.620Z,23.30
2022-08-22T03:52:34.953Z,23.31
2022-08-22T03:55:39.933Z,23.24
2022-08-22T03:58:29.905Z,23.43
2022-08-22T04:01:21.986Z,23.45
2022-08-22T04:04:23.844Z,23.41
2022-08-22T04:07:31.819Z,23.27
2022-08-22T04:10:26.841Z,23.19
2022-08-22T04:13:32.785Z,23.16
2022-08-22T04:16:37.122Z,23.15
2022-08-22T04:19:27.928Z,23.13
2022-08-22T04:22:12.959Z,23.08
2022-08-22T04:24:55.896Z,22.96
2022-08-22T04:27:33.037Z,23.06
2022-08-22T04:30:25.930Z,23.15
2022-08-22T04:33:11.020Z,23.06
2022-08-22T04:35:59.845Z,23.08
2022-08-22T04:38:48.376Z,23.39
2022-08-22T04:41:33.428Z,23.42
2022-08-22T04:44:11.862Z,23.50
2022-08-22T04:47:30.088Z,23.59
2022-08-22T04:50:03.523Z,23.64
2022-08-22T04:52:49.204Z,23.75
2022-08-22T04:55:39.988Z,23.87
2022-08-22T04:58:28.648Z,24.00
2022-08-22T05:01:10.627Z,23.86
2022-08-22T05:03:50.307Z,23.96
2022-08-22T05:06:21.938Z,24.05
2022-08-22T05:08:54.026Z,24.16
2022-08-22T05:11:23.761Z,24.48
2022-08-22T05:14:07.084Z,24.62
2022-08-22T05:16:39.372Z,24.84
2022-08-22T05:19:27.050Z,24.85
2022-08-22T05:21:57.465Z,25.11
2022-08-22T05:24:32.112Z,25.31
2022-08-22T05:27:04.193Z,25.61
2022-08-22T05:29:32.525Z,25.70
2022-08-22T05:32:05.165Z,25.98
2022-08-22T05:34:39.857Z,26.18
2022-08-22T05:37:14.755Z,26.45
2022-08-22T05:39:47.406Z,26.68
2022-08-22T05:42:29.157Z,26.54
2022-08-22T05:44:58.986Z,26.45
2022-08-22T05:47:34.731Z,26.74
2022-08-22T05:50:23.934Z,27.11
2022-08-22T05:53:22.819Z,27.74
2022-08-22T05:55:52.542Z,27.81
2022-08-22T05:59:01.775Z,28.12
2022-08-22T06:01:43.130Z,28.44
2022-08-22T06:04:37.715Z,28.77
2022-08-22T06:07:34.939Z,29.15
2022-08-22T06:10:15.565Z,29.18
2022-08-22T06:12:51.078Z,29.21
2022-08-22T06:15:23.367Z,29.24
2022-08-22T06:18:05.805Z,29.62
2022-08-22T06:20:55.262Z,29.63
2022-08-22T06:23:50.125Z,29.83
2022-08-22T06:26:20.579Z,29.88
2022-08-22T06:28:55.413Z,30.16
2022-08-22T06:31:31.071Z,30.23
2022-08-22T06:34:23.864Z,30.40
2022-08-22T06:36:51.909Z,30.36
2022-08-22T06:39:25.077Z,30.74
2022-08-22T06:42:13.336Z,30.51
2022-08-22T06:45:01.457Z,30.20
2022-08-22T06:47:53.785Z,29.60
2022-08-22T06:50:35.163Z,29.22
2022-08-22T06:53:13.418Z,28.99
2022-08-22T06:55:46.427Z,28.49
2022-08-22T06:58:16.046Z,28.38
2022-08-22T07:01:11.264Z,28.18
2022-08-22T07:04:05.735Z,28.05
2022-08-22T07:06:51.408Z,27.93
2022-08-22T07:09:48.176Z,27.95
2022-08-22T07:12:21.967Z,27.70
2022-08-22T07:14:53.425Z,27.65
2022-08-22T07:17:30.796Z,27.62
2022-08-22T07:20:04.980Z,27.52
2022-08-22T07:22:35.334Z,27.30
2022-08-22T07:25:16.423Z,27.28
2022-08-22T07:27:52.569Z,27.34
2022-08-22T07:30:27.288Z,27.08
2022-08-22T07:33:25.682Z,26.72
2022-08-22T07:36:01.562Z,26.62
2022-08-22T07:38:34.927Z,26.70
2022-08-22T07:41:18.597Z,26.60
2022-08-22T07:43:53.083Z,26.30
2022-08-22T07:46:44.389Z,26.64
2022-08-22T07:49:21.887Z,26.66
2022-08-22T07:51:59.466Z,26.76
2022-08-22T07:54:45.656Z,26.91
2022-08-22T07:57:17.024Z,26.97
2022-08-22T07:59:48.609Z,26.93
2022-08-22T08:02:19.681Z,27.06
2022-08-22T08:04:49.838Z,27.07
2022-08-22T08:07:20.364Z,26.89
2022-08-22T08:10:05.954Z,27.01
2022-08-22T08:12:39.339Z,27.10
2022-08-22T08:15:16.378Z,27.50
2022-08-22T08:17:44.487Z,27.55
2022-08-22T08:20:15.146Z,27.91
2022-08-22T08:22:45.060Z,28.27
2022-08-22T08:25:20.412Z,28.83
2022-08-22T08:28:06.443Z,28.61
2022-08-22T08:31:07.707Z,28.81
2022-08-22T08:34:00.465Z,29.32
2022-08-22T08:36:33.426Z,29.55
2022-08-22T08:39:12.712Z,29.60
2022-08-22T08:41:51.377Z,29.64
2022-08-22T08:45:09.093Z,29.15
2022-08-22T08:48:15.086Z,28.62
2022-08-22T08:50:50.329Z,28.66
2022-08-22T08:53:44.102Z,28.77
2022-08-22T08:56:29.774Z,29.06
2022-08-22T08:59:09.965Z,29.42
2022-08-22T09:01:49.221Z,29.47
2022-08-22T09:04:27.265Z,29.72
2022-08-22T09:07:05.987Z,30.03
2022-08-22T09:09:52.593Z,29.97
2022-08-22T09:12:21.617Z,30.06
2022-08-22T09:14:50.576Z,30.01
2022-08-22T09:17:36.878Z,29.94
2022-08-22T09:20:32.275Z,30.00
2022-08-22T09:23:41.894Z,30.60
2022-08-22T09:26:49.328Z,30.82
2022-08-22T09:30:00.266Z,30.89
2022-08-22T09:32:31.929Z,30.33
2022-08-22T09:35:20.455Z,30.22
2022-08-22T09:38:27.083Z,30.38
2022-08-22T09:41:15.720Z,30.88
2022-08-22T09:43:59.528Z,31.13
2022-08-22T09:46:36.805Z,31.17
2022-08-22T09:49:09.656Z,31.63
2022-08-22T09:52:34.005Z,31.83
2022-08-22T09:55:18.707Z,31.94
2022-08-22T09:58:41.769Z,32.16
2022-08-22T10:01:32.927Z,32.05
2022-08-22T10:04:19.272Z,32.02
2022-08-22T10:06:54.826Z,31.84
2022-08-22T10:09:46.244Z,31.37
2022-08-22T10:12:26.975Z,31.71
2022-08-22T10:14:53.656Z,31.84
2022-08-22T10:17:30.576Z,31.78
2022-08-22T10:20:11.051Z,31.39
2022-08-22T10:23:15.423Z,30.56
2022-08-22T10:25:55.432Z,30.72
2022-08-22T10:28:42.759Z,31.21
2022-08-22T10:31:21.736Z,31.01
2022-08-22T10:34:05.079Z,31.38
2022-08-22T10:36:59.473Z,31.61
2022-08-22T10:39:36.702Z,31.99
2022-08-22T10:42:25.380Z,32.04
2022-08-22T10:45:32.144Z,31.77
2022-08-22T10:48:08.872Z,31.89
2022-08-22T10:50:51.402Z,32.42
2022-08-22T10:53:42.819Z,32.90
2022-08-22T10:56:32.431Z,32.80
2022-08-22T10:59:48.486Z,32.78
2022-08-22T11:02:36.024Z,32.72
2022-08-22T11:05:23.978Z,33.26
2022-08-22T11:08:23.938Z,33.34
2022-08-22T11:11:15.129Z,33.68
2022-08-22T11:13:59.674Z,33.76
2022-08-22T11:16:48.532Z,33.83
2022-08-22T11:20:00.223Z,33.85
2022-08-22T11:22:42.000Z,33.92
2022-08-22T11:25:38.496Z,32.91
2022-08-22T11:28:05.595Z,32.79
2022-08-22T11:30:45.036Z,32.86
2022-08-22T11:33:47.782Z,33.13
2022-08-22T11:36:51.921Z,33.83
2022-08-22T11:39:37.418Z,33.42
2022-08-22T11:42:12.088Z,33.26
2022-08-22T11:44:51.883Z,33.25
2022-08-22T11:47:26.544Z,33.55
2022-08-22T11:50:29.592Z,33.71
2022-08-22T11:53:42.630Z,34.01
2022-08-22T11:56:41.679Z,34.34
2022-08-22T11:59:43.117Z,34.46
2022-08-22T12:02:24.748Z,34.19
2022-08-22T12:05:03.685Z,34.54
2022-08-22T12:07:40.027Z,34.51
2022-08-22T12:10:31.394Z,34.93
2022-08-22T12:13:12.155Z,35.00
2022-08-22T12:16:05.196Z,34.68
2022-08-22T12:18:42.936Z,34.84
2022-08-22T12:21:36.722Z,35.00
2022-08-22T12:24:22.817Z,34.92
2022-08-22T12:27:12.260Z,34.91
2022-08-22T12:30:20.912Z,34.97
2022-08-22T12:33:22.914Z,34.88
2022-08-22T12:36:24.493Z,34.15
2022-08-22T12:39:03.617Z,33.81
2022-08-22T12:42:11.728Z,33.99
2022-08-22T12:44:59.451Z,33.93
2022-08-22T12:47:58.377Z,33.67
2022-08-22T12:50:33.912Z,33.72
2022-08-22T12:53:20.319Z,33.68
2022-08-22T12:55:55.162Z,33.42
2022-08-22T12:58:46.694Z,33.46
2022-08-22T13:01:34.454Z,33.51
2022-08-22T13:04:08.301Z,33.19
2022-08-22T13:06:35.712Z,33.20
2022-08-22T13:09:16.607Z,32.81
2022-08-22T13:11:52.434Z,32.73
2022-08-22T13:14:26.136Z,32.63
2022-08-22T13:17:00.625Z,32.59
2022-08-22T13:20:04.855Z,32.60
2022-08-22T13:22:38.922Z,32.39
2022-08-22T13:25:25.842Z,31.87
2022-08-22T13:28:04.203Z,31.58
2022-08-22T13:30:43.784Z,31.20
2022-08-22T13:33:22.173Z,31.19
2022-08-22T13:36:10.968Z,30.86
2022-08-22T13:38:56.590Z,30.39
2022-08-22T13:41:31.781Z,30.22
2022-08-22T13:44:07.611Z,30.16
2022-08-22T13:46:52.810Z,29.53
2022-08-22T13:49:52.709Z,29.18
2022-08-22T13:52:29.902Z,29.19
2022-08-22T13:55:15.743Z,28.87
2022-08-22T13:57:45.402Z,28.74
2022-08-22T14:00:37.755Z,28.59
2022-08-22T14:03:25.327Z,28.53
2022-08-22T14:06:06.254Z,28.52
2022-08-22T14:08:50.955Z,28.38
2022-08-22T14:11:40.715Z,28.34
2022-08-22T14:14:09.208Z,27.99
2022-08-22T14:17:00.436Z,27.98
2022-08-22T14:19:53.159Z,28.04
2022-08-22T14:22:34.728Z,28.13
2022-08-22T14:25:24.038Z,28.03
2022-08-22T14:27:59.818Z,28.18
2022-08-22T14:30:54.387Z,28.29
2022-08-22T14:33:34.234Z,28.21
2022-08-22T14:36:15.003Z,28.27
2022-08-22T14:39:08.553Z,28.36
2022-08-22T14:41:59.430Z,28.32
2022-08-22T14:44:57.950Z,28.38
2022-08-22T14:47:54.103Z,28.42
2022-08-22T14:50:59.834Z,28.53
2022-08-22T14:53:34.920Z,28.52
2022-08-22T14:56:11.008Z,28.44
2022-08-22T14:59:02.900Z,28.27
2022-08-22T15:01:32.565Z,28.04
2022-08-22T15:04:02.282Z,28.12
2022-08-22T15:06:51.296Z,28.08
2022-08-22T15:09:47.725Z,27.78
2022-08-22T15:12:30.756Z,27.56
2022-08-22T15:15:03.090Z,27.59
2022-08-22T15:17:44.347Z,27.58
2022-08-22T15:20:34.116Z,27.60
2022-08-22T15:23:25.470Z,27.48
2022-08-22T15:26:13.204Z,27.34
2022-08-22T15:28:53.059Z,27.43
2022-08-22T15:31:23.789Z,27.31
2022-08-22T15:33:51.334Z,27.34
2022-08-22T15:36:31.725Z,27.36
2022-08-22T15:39:27.940Z,27.35
2022-08-22T15:41:55.923Z,27.25
2022-08-22T15:44:46.706Z,27.36
2022-08-22T15:47:40.222Z,27.25
2022-08-22T15:50:42.456Z,27.14
2022-08-22T15:53:17.081Z,26.94
2022-08-22T15:56:06.768Z,26.90
2022-08-22T15:58:38.018Z,26.88
2022-08-22T16:01:11.870Z,26.83
2022-08-22T16:04:11.343Z,26.65
2022-08-22T16:06:50.600Z,26.60
2022-08-22T16:09:36.896Z,26.60
2022-08-22T16:12:28.846Z,26.50
2022-08-22T16:14:57.085Z,26.37
2022-08-22T16:17:26.883Z,26.49
2022-08-22T16:20:19.363Z,26.41
2022-08-22T16:22:56.581Z,26.56
2022-08-22T16:25:48.296Z,26.62
2022-08-22T16:28:56.345Z,26.48
2022-08-22T16:31:35.922Z,26.36
2022-08-22T16:34:17.978Z,26.51
2022-08-22T16:36:56.742Z,26.68
2022-08-22T16:39:32.558Z,26.90
2022-08-22T16:42:23.236Z,26.93
2022-08-22T16:45:17.715Z,26.93
2022-08-22T16:47:52.778Z,26.66
2022-08-22T16:50:38.662Z,26.63
2022-08-22T16:53:16.875Z,26.79
2022-08-22T16:55:52.084Z,26.77
2022-08-22T16:58:56.249Z,26.57
2022-08-22T17:01:41.427Z,26.68
2022-08-22T17:04:45.480Z,26.64
2022-08-22T17:07:27.848Z,26.55
2022-08-22T17:10:23.414Z,26.46
2022-08-22T17:13:01.929Z,26.40
2022-08-22T17:16:13.191Z,26.32
2022-08-22T17:18:56.213Z,26.25
2022-08-22T17:22:01.689Z,26.30
2022-08-22T17:24:35.171Z,26.35
2022-08-22T17:27:15.886Z,26.13
2022-08-22T17:30:05.074Z,26.40
2022-08-22T17:32:43.063Z,26.45
2022-08-22T17:35:10.932Z,26.50
2022-08-22T17:38:07.945Z,26.56
2022-08-22T17:40:37.626Z,26.60
2022-08-22T17:43:48.591Z,26.63
2022-08-22T17:46:37.737Z,26.56
2022-08-22T17:49:48.985Z,26.56
2022-08-22T17:52:56.510Z,26.47
2022-08-22T17:56:06.100Z,26.52
2022-08-22T17:58:44.248Z,26.24
2022-08-22T18:01:34.477Z,25.83
2022-08-22T18:04:05.319Z,24.98
2022-08-22T18:06:37.796Z,24.77
2022-08-22T18:09:53.662Z,24.23
2022-08-22T18:12:46.579Z,23.90
2022-08-22T18:15:38.791Z,23.79
2022-08-22T18:18:11.684Z,23.60
2022-08-22T18:20:50.152Z,23.39
2022-08-22T18:23:39.039Z,23.18
2022-08-22T18:26:15.998Z,22.95
2022-08-22T18:29:01.098Z,22.81
2022-08-22T18:31:47.498Z,22.67
2022-08-22T18:34:54.812Z,22.57
2022-08-22T18:37:31.837Z,22.50
2022-08-22T18:40:25.158Z,22.15
2022-08-22T18:43:05.925Z,22.01
2022-08-22T18:45:47.860Z,22.27
2022-08-22T18:48:29.780Z,22.21
2022-08-22T18:51:24.781Z,22.17
2022-08-22T18:54:06.077Z,22.13
2022-08-22T18:56:35.771Z,22.19
2022-08-22T18:59:36.649Z,22.23
2022-08-22T19:02:40.153Z,22.27
2022-08-22T19:05:45.891Z,22.38
2022-08-22T19:08:41.359Z,22.30
2022-08-22T19:11:36.870Z,22.28
2022-08-22T19:14:14.092Z,22.29
2022-08-22T19:17:20.139Z,22.33
2022-08-22T19:20:22.265Z,22.24
2022-08-22T19:22:51.268Z,22.08
2022-08-22T19:25:28.223Z,22.26
2022-08-22T19:28:08.970Z,22.22
2022-08-22T19:30:49.334Z,22.11
2022-08-22T19:33:44.239Z,21.99
2022-08-22T19:36:29.929Z,22.15
2022-08-22T19:39:13.081Z,22.11
2022-08-22T19:41:53.763Z,22.06
2022-08-22T19:44:20.560Z,22.00
2022-08-22T19:46:59.516Z,22.00
2022-08-22T19:49:34.667Z,21.97
2022-08-22T19:52:16.752Z,21.95
2022-08-22T19:54:57.490Z,22.01
2022-08-22T19:57:46.308Z,22.03
2022-08-22T20:00:41.501Z,22.06
2022-08-22T20:03:40.443Z,22.02
2022-08-22T20:06:44.822Z,22.27
2022-08-22T20:09:38.771Z,22.34
2022-08-22T20:12:46.775Z,22.31
2022-08-22T20:15:28.930Z,22.29
2022-08-22T20:18:47.193Z,22.02
2022-08-22T20:21:03.082Z,21.95
2022-08-22T20:23:32.205Z,22.17
2022-08-22T20:26:06.867Z,22.28
2022-08-22T20:28:46.923Z,22.40
2022-08-22T20:31:24.264Z,22.15
2022-08-22T20:34:01.736Z,22.28
2022-08-22T20:36:33.059Z,22.25
2022-08-22T20:39:18.348Z,22.19
2022-08-22T20:42:03.848Z,22.12
2022-08-22T20:44:53.297Z,22.14
2022-08-22T20:47:38.069Z,22.04
2022-08-22T20:50:12.014Z,21.97
2022-08-22T20:52:51.975Z,22.06
2022-08-22T20:55:31.611Z,22.16
2022-08-22T20:58:17.356Z,21.97
2022-08-22T21:00:50.182Z,22.21
2022-08-22T21:03:42.660Z,22.25
2022-08-22T21:06:30.603Z,22.21
2022-08-22T21:09:56.927Z,22.39
2022-08-22T21:12:24.232Z,22.15
2022-08-22T21:14:50.897Z,22.27
2022-08-22T21:17:20.800Z,22.28
2022-08-22T21:19:47.781Z,22.17
2022-08-22T21:22:42.428Z,22.37
2022-08-22T21:25:15.147Z,22.13
2022-08-22T21:27:49.961Z,22.35
2022-08-22T21:30:25.831Z,22.49
2022-08-22T21:32:57.725Z,22.30
2022-08-22T21:35:32.386Z,22.66
2022-08-22T21:38:01.347Z,22.71
2022-08-22T21:40:35.693Z,22.76
2022-08-22T21:43:08.168Z,22.83
2022-08-22T21:45:44.330Z,22.95
2022-08-22T21:48:33.196Z,22.89
2022-08-22T21:51:37.611Z,22.79
2022-08-22T21:54:39.961Z,22.74
2022-08-22T21:57:09.648Z,22.75
2022-08-22T21:59:52.287Z,22.78
2022-08-22T22:02:45.754Z,22.57
2022-08-22T22:05:18.461Z,22.72
2022-08-22T22:07:47.170Z,22.80
2022-08-22T22:10:17.750Z,22.81
2022-08-22T22:12:47.575Z,22.59
2022-08-22T22:15:19.242Z,22.87
2022-08-22T22:17:46.054Z,22.92
2022-08-22T22:20:18.435Z,22.80
2022-08-22T22:22:45.919Z,22.80
2022-08-22T22:25:40.609Z,22.76
2022-08-22T22:28:36.727Z,22.80
2022-08-22T22:31:04.510Z,22.84
2022-08-22T22:33:33.732Z,22.67
2022-08-22T22:36:09.634Z,22.50
2022-08-22T22:38:39.116Z,22.65
2022-08-22T22:41:08.430Z,22.55
2022-08-22T22:43:35.148Z,22.60
2022-08-22T22:46:01.904Z,22.53
2022-08-22T22:48:32.323Z,22.43
2022-08-22T22:50:59.556Z,22.65
2022-08-22T22:53:38.391Z,22.37
2022-08-22T22:56:15.784Z,22.56
2022-08-22T22:58:43.678Z,22.55
2022-08-22T23:01:16.470Z,22.33
2022-08-22T23:03:48.264Z,22.58
2022-08-22T23:06:18.731Z,22.52
2022-08-22T23:08:49.078Z,22.44
2022-08-22T23:11:27.236Z,22.53
2022-08-22T23:13:54.183Z,22.45
2022-08-22T23:16:28.032Z,22.35
2022-08-22T23:18:55.916Z,22.42
2022-08-22T23:21:25.394Z,22.38
2022-08-22T23:23:55.880Z,22.45
2022-08-22T23:26:22.762Z,22.19
2022-08-22T23:28:50.782Z,22.40
2022-08-22T23:31:31.013Z,22.22
2022-08-22T23:34:03.750Z,22.36
2022-08-22T23:36:30.701Z,22.17
2022-08-22T23:38:57.730Z,22.10
2022-08-22T23:41:24.590Z,21.98
2022-08-22T23:43:55.097Z,22.13
2022-08-22T23:46:27.496Z,22.16
2022-08-22T23:49:00.035Z,22.03
2022-08-22T23:51:29.103Z,22.03
2022-08-22T23:53:57.887Z,22.13
2022-08-22T23:56:32.706Z,22.08
